sensor_id;sensor_type;location;lat;lon;timestamp;P1;durP1;ratioP1;P2;durP2;ratioP2
33475;SDS011;19814;48.224;11.422;2023-08-20T00:01:20;8.25;;;5.60;;
33475;SDS011;19814;48.224;11.422;2023-08-20T00:03:48;7.72;;;4.63;;
33475;SDS011;19814;48.224;11.422;2023-08-20T00:06:15;7.93;;;5.32;;
33475;SDS011;19814;48.224;11.422;2023-08-20T00:08:40;7.75;;;5.25;;
33475;SDS011;19814;48.224;11.422;2023-08-20T00:11:06;7.90;;;5.15;;
33475;SDS011;19814;48.224;11.422;2023-08-20T00:13:31;11.82;;;5.70;;
33475;SDS011;19814;48.224;11.422;2023-08-20T00:15:57;11.30;;;5.55;;
33475;SDS011;19814;48.224;11.422;2023-08-20T00:18:23;15.40;;;6.28;;
33475;SDS011;19814;48.224;11.422;2023-08-20T00:20:48;9.93;;;5.57;;
33475;SDS011;19814;48.224;11.422;2023-08-20T00:23:14;15.85;;;6.07;;
33475;SDS011;19814;48.224;11.422;2023-08-20T00:25:40;10.07;;;5.63;;
33475;SDS011;19814;48.224;11.422;2023-08-20T00:28:06;8.70;;;5.70;;
33475;SDS011;19814;48.224;11.422;2023-08-20T00:30:31;8.10;;;5.63;;
33475;SDS011;19814;48.224;11.422;2023-08-20T00:32:57;10.90;;;4.93;;
33475;SDS011;19814;48.224;11.422;2023-08-20T00:35:22;8.93;;;5.38;;
33475;SDS011;19814;48.224;11.422;2023-08-20T00:37:48;10.00;;;5.30;;
33475;SDS011;19814;48.224;11.422;2023-08-20T00:40:14;8.13;;;5.75;;
33475;SDS011;19814;48.224;11.422;2023-08-20T00:42:39;12.15;;;6.65;;
33475;SDS011;19814;48.224;11.422;2023-08-20T00:45:05;10.82;;;6.68;;
33475;SDS011;19814;48.224;11.422;2023-08-20T00:47:31;10.40;;;5.95;;
33475;SDS011;19814;48.224;11.422;2023-08-20T00:49:56;10.10;;;5.80;;
33475;SDS011;19814;48.224;11.422;2023-08-20T00:52:22;10.85;;;6.40;;
33475;SDS011;19814;48.224;11.422;2023-08-20T00:54:47;12.57;;;6.78;;
33475;SDS011;19814;48.224;11.422;2023-08-20T00:57:14;10.23;;;5.78;;
33475;SDS011;19814;48.224;11.422;2023-08-20T00:59:42;12.40;;;5.93;;
33475;SDS011;19814;48.224;11.422;2023-08-20T01:02:09;11.20;;;5.80;;
33475;SDS011;19814;48.224;11.422;2023-08-20T01:04:35;10.07;;;5.55;;
33475;SDS011;19814;48.224;11.422;2023-08-20T01:07:07;9.65;;;5.95;;
33475;SDS011;19814;48.224;11.422;2023-08-20T01:12:29;14.48;;;6.10;;
33475;SDS011;19814;48.224;11.422;2023-08-20T01:14:56;10.32;;;5.80;;
33475;SDS011;19814;48.224;11.422;2023-08-20T01:17:22;8.60;;;5.78;;
33475;SDS011;19814;48.224;11.422;2023-08-20T01:19:47;9.68;;;5.68;;
33475;SDS011;19814;48.224;11.422;2023-08-20T01:30:49;8.27;;;5.40;;
33475;SDS011;19814;48.224;11.422;2023-08-20T01:33:17;9.98;;;6.22;;
33475;SDS011;19814;48.224;11.422;2023-08-20T01:35:43;8.55;;;5.13;;
33475;SDS011;19814;48.224;11.422;2023-08-20T01:38:09;8.35;;;5.00;;
33475;SDS011;19814;48.224;11.422;2023-08-20T01:40:34;8.65;;;5.20;;
33475;SDS011;19814;48.224;11.422;2023-08-20T01:43:00;18.30;;;6.10;;
33475;SDS011;19814;48.224;11.422;2023-08-20T01:45:25;9.40;;;5.85;;
33475;SDS011;19814;48.224;11.422;2023-08-20T01:47:51;8.15;;;5.65;;
33475;SDS011;19814;48.224;11.422;2023-08-20T01:50:17;9.98;;;5.80;;
33475;SDS011;19814;48.224;11.422;2023-08-20T01:52:42;11.15;;;5.57;;
33475;SDS011;19814;48.224;11.422;2023-08-20T01:55:08;9.00;;;5.53;;
33475;SDS011;19814;48.224;11.422;2023-08-20T01:57:34;11.45;;;5.60;;
33475;SDS011;19814;48.224;11.422;2023-08-20T01:59:59;11.30;;;6.32;;
33475;SDS011;19814;48.224;11.422;2023-08-20T02:02:25;9.30;;;5.57;;
33475;SDS011;19814;48.224;11.422;2023-08-20T02:04:50;7.60;;;5.13;;
33475;SDS011;19814;48.224;11.422;2023-08-20T02:07:16;10.18;;;5.72;;
33475;SDS011;19814;48.224;11.422;2023-08-20T02:09:42;7.95;;;5.75;;
33475;SDS011;19814;48.224;11.422;2023-08-20T02:12:07;8.80;;;5.43;;
33475;SDS011;19814;48.224;11.422;2023-08-20T02:14:34;9.32;;;5.50;;
33475;SDS011;19814;48.224;11.422;2023-08-20T02:17:00;9.13;;;5.95;;
33475;SDS011;19814;48.224;11.422;2023-08-20T02:19:26;13.10;;;5.80;;
33475;SDS011;19814;48.224;11.422;2023-08-20T02:21:52;9.35;;;5.38;;
33475;SDS011;19814;48.224;11.422;2023-08-20T02:24:18;7.70;;;5.15;;
33475;SDS011;19814;48.224;11.422;2023-08-20T02:26:44;10.55;;;6.20;;
33475;SDS011;19814;48.224;11.422;2023-08-20T02:29:09;9.93;;;5.95;;
33475;SDS011;19814;48.224;11.422;2023-08-20T02:31:35;7.95;;;5.45;;
33475;SDS011;19814;48.224;11.422;2023-08-20T02:34:01;9.50;;;5.70;;
33475;SDS011;19814;48.224;11.422;2023-08-20T02:36:26;7.78;;;5.53;;
33475;SDS011;19814;48.224;11.422;2023-08-20T02:38:52;10.35;;;6.15;;
33475;SDS011;19814;48.224;11.422;2023-08-20T02:41:18;14.45;;;5.85;;
33475;SDS011;19814;48.224;11.422;2023-08-20T02:43:43;10.73;;;5.50;;
33475;SDS011;19814;48.224;11.422;2023-08-20T02:46:09;9.75;;;5.35;;
33475;SDS011;19814;48.224;11.422;2023-08-20T02:48:35;9.65;;;5.70;;
33475;SDS011;19814;48.224;11.422;2023-08-20T02:51:00;7.53;;;4.70;;
33475;SDS011;19814;48.224;11.422;2023-08-20T02:53:26;8.98;;;5.07;;
33475;SDS011;19814;48.224;11.422;2023-08-20T02:55:51;9.63;;;5.47;;
33475;SDS011;19814;48.224;11.422;2023-08-20T02:58:17;9.48;;;5.35;;
33475;SDS011;19814;48.224;11.422;2023-08-20T03:00:42;7.80;;;5.25;;
33475;SDS011;19814;48.224;11.422;2023-08-20T03:03:10;9.32;;;5.63;;
33475;SDS011;19814;48.224;11.422;2023-08-20T03:05:36;9.20;;;5.18;;
33475;SDS011;19814;48.224;11.422;2023-08-20T03:08:01;10.27;;;5.22;;
33475;SDS011;19814;48.224;11.422;2023-08-20T03:10:28;7.93;;;5.32;;
33475;SDS011;19814;48.224;11.422;2023-08-20T03:12:54;7.63;;;5.03;;
33475;SDS011;19814;48.224;11.422;2023-08-20T03:15:20;11.93;;;5.20;;
33475;SDS011;19814;48.224;11.422;2023-08-20T03:17:46;9.85;;;5.80;;
33475;SDS011;19814;48.224;11.422;2023-08-20T03:20:11;8.45;;;4.80;;
33475;SDS011;19814;48.224;11.422;2023-08-20T03:22:37;8.98;;;5.03;;
33475;SDS011;19814;48.224;11.422;2023-08-20T03:25:03;8.40;;;4.97;;
33475;SDS011;19814;48.224;11.422;2023-08-20T03:27:30;7.25;;;4.90;;
33475;SDS011;19814;48.224;11.422;2023-08-20T03:29:55;9.82;;;5.40;;
33475;SDS011;19814;48.224;11.422;2023-08-20T03:32:21;7.43;;;5.32;;
33475;SDS011;19814;48.224;11.422;2023-08-20T03:34:47;8.77;;;5.05;;
33475;SDS011;19814;48.224;11.422;2023-08-20T03:37:12;6.72;;;4.55;;
33475;SDS011;19814;48.224;11.422;2023-08-20T03:39:38;10.48;;;5.22;;
33475;SDS011;19814;48.224;11.422;2023-08-20T03:42:03;8.65;;;4.72;;
33475;SDS011;19814;48.224;11.422;2023-08-20T03:44:30;8.68;;;5.07;;
33475;SDS011;19814;48.224;11.422;2023-08-20T03:46:56;8.82;;;4.28;;
33475;SDS011;19814;48.224;11.422;2023-08-20T03:49:21;11.57;;;5.13;;
33475;SDS011;19814;48.224;11.422;2023-08-20T03:51:47;10.18;;;5.13;;
33475;SDS011;19814;48.224;11.422;2023-08-20T03:54:13;10.23;;;5.85;;
33475;SDS011;19814;48.224;11.422;2023-08-20T03:56:38;9.50;;;5.72;;
33475;SDS011;19814;48.224;11.422;2023-08-20T03:59:04;11.95;;;5.18;;
33475;SDS011;19814;48.224;11.422;2023-08-20T04:01:29;9.18;;;5.10;;
33475;SDS011;19814;48.224;11.422;2023-08-20T04:03:55;8.07;;;5.55;;
33475;SDS011;19814;48.224;11.422;2023-08-20T04:06:20;7.00;;;5.25;;
33475;SDS011;19814;48.224;11.422;2023-08-20T04:08:46;8.25;;;5.38;;
33475;SDS011;19814;48.224;11.422;2023-08-20T04:11:11;8.68;;;3.72;;
33475;SDS011;19814;48.224;11.422;2023-08-20T04:13:37;6.50;;;3.63;;
33475;SDS011;19814;48.224;11.422;2023-08-20T04:16:04;6.32;;;3.65;;
33475;SDS011;19814;48.224;11.422;2023-08-20T04:18:30;8.35;;;3.90;;
33475;SDS011;19814;48.224;11.422;2023-08-20T04:20:55;7.55;;;4.47;;
33475;SDS011;19814;48.224;11.422;2023-08-20T04:23:22;9.50;;;4.30;;
33475;SDS011;19814;48.224;11.422;2023-08-20T04:25:48;9.43;;;4.78;;
33475;SDS011;19814;48.224;11.422;2023-08-20T04:28:13;8.63;;;4.65;;
33475;SDS011;19814;48.224;11.422;2023-08-20T04:30:39;8.30;;;5.20;;
33475;SDS011;19814;48.224;11.422;2023-08-20T04:33:04;8.65;;;5.10;;
33475;SDS011;19814;48.224;11.422;2023-08-20T04:35:30;10.40;;;5.00;;
33475;SDS011;19814;48.224;11.422;2023-08-20T04:37:56;7.13;;;4.53;;
33475;SDS011;19814;48.224;11.422;2023-08-20T04:40:22;7.53;;;4.35;;
33475;SDS011;19814;48.224;11.422;2023-08-20T04:42:48;6.45;;;3.33;;
33475;SDS011;19814;48.224;11.422;2023-08-20T04:45:14;7.80;;;4.88;;
33475;SDS011;19814;48.224;11.422;2023-08-20T04:47:41;8.63;;;5.00;;
33475;SDS011;19814;48.224;11.422;2023-08-20T04:50:07;8.63;;;5.35;;
33475;SDS011;19814;48.224;11.422;2023-08-20T04:52:33;9.63;;;5.22;;
33475;SDS011;19814;48.224;11.422;2023-08-20T04:54:59;8.65;;;4.95;;
33475;SDS011;19814;48.224;11.422;2023-08-20T04:57:25;7.97;;;4.70;;
33475;SDS011;19814;48.224;11.422;2023-08-20T04:59:51;7.97;;;4.43;;
33475;SDS011;19814;48.224;11.422;2023-08-20T05:02:16;7.10;;;4.75;;
33475;SDS011;19814;48.224;11.422;2023-08-20T05:04:42;6.18;;;4.28;;
33475;SDS011;19814;48.224;11.422;2023-08-20T05:07:07;8.18;;;4.88;;
33475;SDS011;19814;48.224;11.422;2023-08-20T05:09:34;7.22;;;4.93;;
33475;SDS011;19814;48.224;11.422;2023-08-20T05:11:59;11.82;;;4.97;;
33475;SDS011;19814;48.224;11.422;2023-08-20T05:14:25;9.68;;;4.93;;
33475;SDS011;19814;48.224;11.422;2023-08-20T05:16:50;11.45;;;5.15;;
33475;SDS011;19814;48.224;11.422;2023-08-20T05:19:16;7.90;;;5.20;;
33475;SDS011;19814;48.224;11.422;2023-08-20T05:21:41;6.75;;;4.20;;
33475;SDS011;19814;48.224;11.422;2023-08-20T05:24:07;8.98;;;5.35;;
33475;SDS011;19814;48.224;11.422;2023-08-20T05:26:33;11.50;;;5.65;;
33475;SDS011;19814;48.224;11.422;2023-08-20T05:28:59;8.60;;;5.40;;
33475;SDS011;19814;48.224;11.422;2023-08-20T05:31:25;8.60;;;5.20;;
33475;SDS011;19814;48.224;11.422;2023-08-20T05:33:50;7.97;;;5.40;;
33475;SDS011;19814;48.224;11.422;2023-08-20T05:36:16;7.80;;;5.35;;
33475;SDS011;19814;48.224;11.422;2023-08-20T05:38:41;11.40;;;4.97;;
33475;SDS011;19814;48.224;11.422;2023-08-20T05:41:08;9.90;;;5.40;;
33475;SDS011;19814;48.224;11.422;2023-08-20T05:43:34;7.90;;;5.13;;
33475;SDS011;19814;48.224;11.422;2023-08-20T05:46:01;7.18;;;5.30;;
33475;SDS011;19814;48.224;11.422;2023-08-20T05:48:27;11.25;;;4.95;;
33475;SDS011;19814;48.224;11.422;2023-08-20T05:50:52;7.53;;;4.72;;
33475;SDS011;19814;48.224;11.422;2023-08-20T05:53:18;7.95;;;4.97;;
33475;SDS011;19814;48.224;11.422;2023-08-20T05:55:43;9.30;;;5.70;;
33475;SDS011;19814;48.224;11.422;2023-08-20T05:58:09;9.52;;;5.55;;
33475;SDS011;19814;48.224;11.422;2023-08-20T06:00:34;7.97;;;5.25;;
33475;SDS011;19814;48.224;11.422;2023-08-20T06:03:00;8.75;;;5.03;;
33475;SDS011;19814;48.224;11.422;2023-08-20T06:05:25;7.43;;;5.15;;
33475;SDS011;19814;48.224;11.422;2023-08-20T06:07:51;8.80;;;5.38;;
33475;SDS011;19814;48.224;11.422;2023-08-20T06:10:16;8.63;;;5.60;;
33475;SDS011;19814;48.224;11.422;2023-08-20T06:12:42;7.95;;;4.70;;
33475;SDS011;19814;48.224;11.422;2023-08-20T06:15:07;9.27;;;5.53;;
33475;SDS011;19814;48.224;11.422;2023-08-20T06:17:33;7.50;;;5.05;;
33475;SDS011;19814;48.224;11.422;2023-08-20T06:19:59;11.88;;;4.93;;
33475;SDS011;19814;48.224;11.422;2023-08-20T06:22:24;15.05;;;5.28;;
33475;SDS011;19814;48.224;11.422;2023-08-20T06:24:50;7.75;;;4.38;;
33475;SDS011;19814;48.224;11.422;2023-08-20T06:27:15;8.38;;;4.72;;
33475;SDS011;19814;48.224;11.422;2023-08-20T06:29:41;7.68;;;4.50;;
33475;SDS011;19814;48.224;11.422;2023-08-20T06:32:06;11.10;;;4.15;;
33475;SDS011;19814;48.224;11.422;2023-08-20T06:34:33;9.32;;;3.95;;
33475;SDS011;19814;48.224;11.422;2023-08-20T06:36:59;7.80;;;4.55;;
33475;SDS011;19814;48.224;11.422;2023-08-20T06:39:25;9.57;;;5.30;;
33475;SDS011;19814;48.224;11.422;2023-08-20T06:41:50;7.90;;;4.13;;
33475;SDS011;19814;48.224;11.422;2023-08-20T06:44:16;6.95;;;4.30;;
33475;SDS011;19814;48.224;11.422;2023-08-20T06:46:42;7.80;;;4.55;;
33475;SDS011;19814;48.224;11.422;2023-08-20T06:49:07;6.55;;;4.30;;
33475;SDS011;19814;48.224;11.422;2023-08-20T06:51:33;7.95;;;4.35;;
33475;SDS011;19814;48.224;11.422;2023-08-20T06:53:58;7.68;;;4.43;;
33475;SDS011;19814;48.224;11.422;2023-08-20T06:56:24;8.15;;;3.78;;
33475;SDS011;19814;48.224;11.422;2023-08-20T06:58:50;6.80;;;3.92;;
33475;SDS011;19814;48.224;11.422;2023-08-20T07:01:15;6.43;;;4.03;;
33475;SDS011;19814;48.224;11.422;2023-08-20T07:03:42;6.18;;;3.80;;
33475;SDS011;19814;48.224;11.422;2023-08-20T07:06:09;8.93;;;3.65;;
33475;SDS011;19814;48.224;11.422;2023-08-20T07:08:36;7.13;;;3.58;;
33475;SDS011;19814;48.224;11.422;2023-08-20T07:11:04;8.35;;;3.53;;
33475;SDS011;19814;48.224;11.422;2023-08-20T07:13:29;9.02;;;4.03;;
33475;SDS011;19814;48.224;11.422;2023-08-20T07:15:55;5.47;;;3.50;;
33475;SDS011;19814;48.224;11.422;2023-08-20T07:18:21;8.68;;;3.67;;
33475;SDS011;19814;48.224;11.422;2023-08-20T07:20:46;8.02;;;3.58;;
33475;SDS011;19814;48.224;11.422;2023-08-20T07:23:12;8.80;;;3.95;;
33475;SDS011;19814;48.224;11.422;2023-08-20T07:25:38;4.78;;;3.08;;
33475;SDS011;19814;48.224;11.422;2023-08-20T07:28:04;5.13;;;3.38;;
33475;SDS011;19814;48.224;11.422;2023-08-20T07:30:31;6.65;;;3.88;;
33475;SDS011;19814;48.224;11.422;2023-08-20T07:32:56;7.93;;;3.42;;
33475;SDS011;19814;48.224;11.422;2023-08-20T07:35:22;8.93;;;3.70;;
33475;SDS011;19814;48.224;11.422;2023-08-20T07:37:48;7.13;;;3.72;;
33475;SDS011;19814;48.224;11.422;2023-08-20T07:40:14;6.47;;;3.63;;
33475;SDS011;19814;48.224;11.422;2023-08-20T07:42:40;7.05;;;3.70;;
33475;SDS011;19814;48.224;11.422;2023-08-20T07:45:06;10.00;;;4.38;;
33475;SDS011;19814;48.224;11.422;2023-08-20T07:47:32;6.90;;;3.78;;
33475;SDS011;19814;48.224;11.422;2023-08-20T07:50:01;7.13;;;3.97;;
33475;SDS011;19814;48.224;11.422;2023-08-20T07:52:28;9.15;;;4.00;;
33475;SDS011;19814;48.224;11.422;2023-08-20T07:54:53;6.43;;;4.03;;
33475;SDS011;19814;48.224;11.422;2023-08-20T07:57:19;10.45;;;4.35;;
33475;SDS011;19814;48.224;11.422;2023-08-20T07:59:45;6.85;;;3.63;;
33475;SDS011;19814;48.224;11.422;2023-08-20T08:02:10;6.20;;;3.63;;
33475;SDS011;19814;48.224;11.422;2023-08-20T08:04:36;8.02;;;3.92;;
33475;SDS011;19814;48.224;11.422;2023-08-20T08:07:01;7.82;;;4.10;;
33475;SDS011;19814;48.224;11.422;2023-08-20T08:09:28;9.38;;;3.70;;
33475;SDS011;19814;48.224;11.422;2023-08-20T08:11:57;6.85;;;3.78;;
33475;SDS011;19814;48.224;11.422;2023-08-20T08:14:23;8.23;;;4.13;;
33475;SDS011;19814;48.224;11.422;2023-08-20T08:16:49;8.82;;;3.85;;
33475;SDS011;19814;48.224;11.422;2023-08-20T08:19:15;9.50;;;4.38;;
33475;SDS011;19814;48.224;11.422;2023-08-20T08:21:41;7.70;;;4.30;;
33475;SDS011;19814;48.224;11.422;2023-08-20T08:24:08;6.82;;;4.28;;
33475;SDS011;19814;48.224;11.422;2023-08-20T08:26:34;6.80;;;3.92;;
33475;SDS011;19814;48.224;11.422;2023-08-20T08:29:03;6.17;;;3.90;;
33475;SDS011;19814;48.224;11.422;2023-08-20T08:31:29;8.52;;;4.32;;
33475;SDS011;19814;48.224;11.422;2023-08-20T08:33:55;7.65;;;3.90;;
33475;SDS011;19814;48.224;11.422;2023-08-20T08:36:21;16.58;;;3.75;;
33475;SDS011;19814;48.224;11.422;2023-08-20T08:38:46;7.07;;;4.40;;
33475;SDS011;19814;48.224;11.422;2023-08-20T08:41:12;6.88;;;4.20;;
33475;SDS011;19814;48.224;11.422;2023-08-20T08:43:39;7.47;;;4.18;;
33475;SDS011;19814;48.224;11.422;2023-08-20T08:46:06;5.68;;;3.80;;
33475;SDS011;19814;48.224;11.422;2023-08-20T08:48:35;5.47;;;3.50;;
33475;SDS011;19814;48.224;11.422;2023-08-20T08:51:01;7.45;;;3.63;;
33475;SDS011;19814;48.224;11.422;2023-08-20T08:53:27;6.00;;;3.72;;
33475;SDS011;19814;48.224;11.422;2023-08-20T08:55:55;8.13;;;4.25;;
33475;SDS011;19814;48.224;11.422;2023-08-20T08:58:21;7.25;;;4.07;;
33475;SDS011;19814;48.224;11.422;2023-08-20T09:00:46;6.35;;;3.97;;
33475;SDS011;19814;48.224;11.422;2023-08-20T09:03:13;8.50;;;4.45;;
33475;SDS011;19814;48.224;11.422;2023-08-20T09:05:45;10.52;;;4.13;;
33475;SDS011;19814;48.224;11.422;2023-08-20T09:08:18;6.75;;;4.00;;
33475;SDS011;19814;48.224;11.422;2023-08-20T09:10:55;6.95;;;3.63;;
33475;SDS011;19814;48.224;11.422;2023-08-20T09:13:24;8.50;;;4.05;;
33475;SDS011;19814;48.224;11.422;2023-08-20T09:15:52;6.05;;;3.88;;
33475;SDS011;19814;48.224;11.422;2023-08-20T09:18:18;5.63;;;3.80;;
33475;SDS011;19814;48.224;11.422;2023-08-20T09:20:44;5.55;;;3.80;;
33475;SDS011;19814;48.224;11.422;2023-08-20T09:23:12;7.05;;;3.58;;
33475;SDS011;19814;48.224;11.422;2023-08-20T09:25:38;6.32;;;4.10;;
33475;SDS011;19814;48.224;11.422;2023-08-20T09:28:04;7.05;;;3.60;;
33475;SDS011;19814;48.224;11.422;2023-08-20T09:30:30;6.97;;;3.75;;
33475;SDS011;19814;48.224;11.422;2023-08-20T09:33:30;10.48;;;4.18;;
33475;SDS011;19814;48.224;11.422;2023-08-20T09:35:49;9.02;;;4.03;;
33475;SDS011;19814;48.224;11.422;2023-08-20T09:38:16;5.82;;;3.72;;
33475;SDS011;19814;48.224;11.422;2023-08-20T09:40:47;5.20;;;3.50;;
33475;SDS011;19814;48.224;11.422;2023-08-20T09:43:15;6.93;;;3.38;;
33475;SDS011;19814;48.224;11.422;2023-08-20T09:45:42;4.90;;;3.33;;
33475;SDS011;19814;48.224;11.422;2023-08-20T09:48:08;7.00;;;3.50;;
33475;SDS011;19814;48.224;11.422;2023-08-20T09:50:35;5.35;;;3.25;;
33475;SDS011;19814;48.224;11.422;2023-08-20T09:53:12;5.90;;;3.25;;
33475;SDS011;19814;48.224;11.422;2023-08-20T09:55:51;7.05;;;3.25;;
33475;SDS011;19814;48.224;11.422;2023-08-20T09:58:20;7.18;;;3.30;;
33475;SDS011;19814;48.224;11.422;2023-08-20T10:00:51;3.83;;;2.88;;
33475;SDS011;19814;48.224;11.422;2023-08-20T10:03:17;4.90;;;3.30;;
33475;SDS011;19814;48.224;11.422;2023-08-20T10:05:46;4.82;;;3.00;;
33475;SDS011;19814;48.224;11.422;2023-08-20T10:08:13;5.20;;;3.05;;
33475;SDS011;19814;48.224;11.422;2023-08-20T10:10:39;4.03;;;3.20;;
33475;SDS011;19814;48.224;11.422;2023-08-20T10:13:05;5.53;;;3.78;;
33475;SDS011;19814;48.224;11.422;2023-08-20T10:15:31;4.45;;;3.10;;
33475;SDS011;19814;48.224;11.422;2023-08-20T10:17:59;5.88;;;3.33;;
33475;SDS011;19814;48.224;11.422;2023-08-20T10:20:25;4.07;;;2.80;;
33475;SDS011;19814;48.224;11.422;2023-08-20T10:22:54;4.72;;;3.10;;
33475;SDS011;19814;48.224;11.422;2023-08-20T10:25:25;5.18;;;2.95;;
33475;SDS011;19814;48.224;11.422;2023-08-20T10:27:52;6.97;;;3.20;;
33475;SDS011;19814;48.224;11.422;2023-08-20T10:30:19;4.22;;;3.03;;
33475;SDS011;19814;48.224;11.422;2023-08-20T10:32:53;4.47;;;2.85;;
33475;SDS011;19814;48.224;11.422;2023-08-20T10:35:28;6.38;;;3.20;;
33475;SDS011;19814;48.224;11.422;2023-08-20T10:38:16;4.93;;;2.90;;
33475;SDS011;19814;48.224;11.422;2023-08-20T10:43:26;5.68;;;2.95;;
33475;SDS011;19814;48.224;11.422;2023-08-20T10:46:02;7.90;;;3.20;;
33475;SDS011;19814;48.224;11.422;2023-08-20T10:48:29;5.00;;;3.30;;
33475;SDS011;19814;48.224;11.422;2023-08-20T10:50:55;6.70;;;2.92;;
33475;SDS011;19814;48.224;11.422;2023-08-20T10:53:21;6.40;;;2.90;;
33475;SDS011;19814;48.224;11.422;2023-08-20T10:55:48;6.45;;;2.90;;
33475;SDS011;19814;48.224;11.422;2023-08-20T10:58:14;4.93;;;2.97;;
33475;SDS011;19814;48.224;11.422;2023-08-20T11:00:40;4.97;;;3.40;;
33475;SDS011;19814;48.224;11.422;2023-08-20T11:03:07;6.47;;;3.25;;
33475;SDS011;19814;48.224;11.422;2023-08-20T11:05:32;4.50;;;2.97;;
33475;SDS011;19814;48.224;11.422;2023-08-20T11:07:59;4.13;;;3.05;;
33475;SDS011;19814;48.224;11.422;2023-08-20T11:10:25;4.85;;;3.30;;
33475;SDS011;19814;48.224;11.422;2023-08-20T11:12:51;4.65;;;2.83;;
33475;SDS011;19814;48.224;11.422;2023-08-20T11:15:17;6.75;;;3.20;;
33475;SDS011;19814;48.224;11.422;2023-08-20T11:17:45;6.13;;;3.15;;
33475;SDS011;19814;48.224;11.422;2023-08-20T11:20:13;5.35;;;3.03;;
33475;SDS011;19814;48.224;11.422;2023-08-20T11:22:39;5.47;;;3.17;;
33475;SDS011;19814;48.224;11.422;2023-08-20T11:25:06;6.10;;;3.05;;
33475;SDS011;19814;48.224;11.422;2023-08-20T11:27:36;5.15;;;3.25;;
33475;SDS011;19814;48.224;11.422;2023-08-20T11:30:04;6.90;;;2.92;;
33475;SDS011;19814;48.224;11.422;2023-08-20T11:32:31;5.90;;;3.78;;
33475;SDS011;19814;48.224;11.422;2023-08-20T11:34:56;5.95;;;4.07;;
33475;SDS011;19814;48.224;11.422;2023-08-20T11:37:22;6.85;;;3.00;;
33475;SDS011;19814;48.224;11.422;2023-08-20T11:39:48;6.70;;;3.00;;
33475;SDS011;19814;48.224;11.422;2023-08-20T11:42:14;4.70;;;3.63;;
33475;SDS011;19814;48.224;11.422;2023-08-20T11:44:44;7.63;;;3.70;;
33475;SDS011;19814;48.224;11.422;2023-08-20T11:47:15;5.38;;;3.40;;
33475;SDS011;19814;48.224;11.422;2023-08-20T11:49:41;5.40;;;3.28;;
33475;SDS011;19814;48.224;11.422;2023-08-20T11:52:07;6.32;;;2.97;;
33475;SDS011;19814;48.224;11.422;2023-08-20T11:54:32;4.18;;;2.83;;
33475;SDS011;19814;48.224;11.422;2023-08-20T11:57:02;4.50;;;3.45;;
33475;SDS011;19814;48.224;11.422;2023-08-20T11:59:28;5.30;;;2.80;;
33475;SDS011;19814;48.224;11.422;2023-08-20T12:01:58;7.68;;;3.08;;
33475;SDS011;19814;48.224;11.422;2023-08-20T12:04:30;4.57;;;2.95;;
33475;SDS011;19814;48.224;11.422;2023-08-20T12:07:03;7.20;;;3.17;;
33475;SDS011;19814;48.224;11.422;2023-08-20T12:09:38;5.15;;;2.95;;
33475;SDS011;19814;48.224;11.422;2023-08-20T12:12:05;6.47;;;3.10;;
33475;SDS011;19814;48.224;11.422;2023-08-20T12:14:31;5.30;;;3.00;;
33475;SDS011;19814;48.224;11.422;2023-08-20T12:16:57;4.63;;;2.90;;
33475;SDS011;19814;48.224;11.422;2023-08-20T12:19:23;6.07;;;2.97;;
33475;SDS011;19814;48.224;11.422;2023-08-20T12:21:49;3.70;;;2.53;;
33475;SDS011;19814;48.224;11.422;2023-08-20T12:24:15;4.82;;;3.13;;
33475;SDS011;19814;48.224;11.422;2023-08-20T12:26:41;4.97;;;2.97;;
33475;SDS011;19814;48.224;11.422;2023-08-20T12:29:07;4.63;;;3.10;;
33475;SDS011;19814;48.224;11.422;2023-08-20T12:31:32;4.00;;;2.95;;
33475;SDS011;19814;48.224;11.422;2023-08-20T12:33:58;5.55;;;3.10;;
33475;SDS011;19814;48.224;11.422;2023-08-20T12:36:24;5.82;;;3.05;;
33475;SDS011;19814;48.224;11.422;2023-08-20T12:38:50;4.15;;;2.78;;
33475;SDS011;19814;48.224;11.422;2023-08-20T12:41:15;5.38;;;3.22;;
33475;SDS011;19814;48.224;11.422;2023-08-20T12:43:41;4.10;;;2.70;;
33475;SDS011;19814;48.224;11.422;2023-08-20T12:46:07;5.00;;;2.80;;
33475;SDS011;19814;48.224;11.422;2023-08-20T12:48:32;3.65;;;2.65;;
33475;SDS011;19814;48.224;11.422;2023-08-20T12:50:58;3.58;;;2.65;;
33475;SDS011;19814;48.224;11.422;2023-08-20T12:53:23;4.25;;;2.95;;
33475;SDS011;19814;48.224;11.422;2023-08-20T12:55:49;3.78;;;2.72;;
33475;SDS011;19814;48.224;11.422;2023-08-20T12:58:15;3.33;;;2.63;;
33475;SDS011;19814;48.224;11.422;2023-08-20T13:00:40;5.10;;;2.85;;
33475;SDS011;19814;48.224;11.422;2023-08-20T13:03:06;5.65;;;3.03;;
33475;SDS011;19814;48.224;11.422;2023-08-20T13:05:32;5.68;;;3.63;;
33475;SDS011;19814;48.224;11.422;2023-08-20T13:07:58;5.40;;;2.70;;
33475;SDS011;19814;48.224;11.422;2023-08-20T13:10:24;4.63;;;3.03;;
33475;SDS011;19814;48.224;11.422;2023-08-20T13:12:51;3.92;;;2.83;;
33475;SDS011;19814;48.224;11.422;2023-08-20T13:15:19;4.20;;;2.57;;
33475;SDS011;19814;48.224;11.422;2023-08-20T13:17:46;4.35;;;3.03;;
33475;SDS011;19814;48.224;11.422;2023-08-20T13:20:14;5.00;;;3.03;;
33475;SDS011;19814;48.224;11.422;2023-08-20T13:22:40;4.00;;;2.95;;
33475;SDS011;19814;48.224;11.422;2023-08-20T13:25:06;5.38;;;3.15;;
33475;SDS011;19814;48.224;11.422;2023-08-20T13:27:32;4.38;;;2.90;;
33475;SDS011;19814;48.224;11.422;2023-08-20T13:29:58;5.00;;;2.92;;
33475;SDS011;19814;48.224;11.422;2023-08-20T13:32:24;5.15;;;2.90;;
33475;SDS011;19814;48.224;11.422;2023-08-20T13:34:50;4.10;;;2.72;;
33475;SDS011;19814;48.224;11.422;2023-08-20T13:37:15;4.43;;;2.70;;
33475;SDS011;19814;48.224;11.422;2023-08-20T13:39:42;7.35;;;3.03;;
33475;SDS011;19814;48.224;11.422;2023-08-20T13:42:07;5.57;;;3.22;;
33475;SDS011;19814;48.224;11.422;2023-08-20T13:44:33;4.95;;;3.15;;
33475;SDS011;19814;48.224;11.422;2023-08-20T13:46:59;4.32;;;2.67;;
33475;SDS011;19814;48.224;11.422;2023-08-20T13:49:24;4.93;;;2.67;;
33475;SDS011;19814;48.224;11.422;2023-08-20T13:51:50;5.45;;;3.00;;
33475;SDS011;19814;48.224;11.422;2023-08-20T13:54:16;12.45;;;3.35;;
33475;SDS011;19814;48.224;11.422;2023-08-20T13:56:41;9.57;;;3.20;;
33475;SDS011;19814;48.224;11.422;2023-08-20T13:59:08;5.90;;;3.05;;
33475;SDS011;19814;48.224;11.422;2023-08-20T14:01:34;6.22;;;2.65;;
33475;SDS011;19814;48.224;11.422;2023-08-20T14:04:00;6.80;;;3.33;;
33475;SDS011;19814;48.224;11.422;2023-08-20T14:06:25;6.47;;;3.03;;
33475;SDS011;19814;48.224;11.422;2023-08-20T14:08:51;6.95;;;3.00;;
33475;SDS011;19814;48.224;11.422;2023-08-20T14:11:16;5.15;;;3.38;;
33475;SDS011;19814;48.224;11.422;2023-08-20T14:13:42;5.55;;;3.53;;
33475;SDS011;19814;48.224;11.422;2023-08-20T14:16:07;10.68;;;3.17;;
33475;SDS011;19814;48.224;11.422;2023-08-20T14:18:33;8.25;;;3.45;;
33475;SDS011;19814;48.224;11.422;2023-08-20T14:20:59;6.28;;;3.30;;
33475;SDS011;19814;48.224;11.422;2023-08-20T14:23:24;5.95;;;3.55;;
33475;SDS011;19814;48.224;11.422;2023-08-20T14:25:50;7.28;;;3.05;;
33475;SDS011;19814;48.224;11.422;2023-08-20T14:28:15;5.13;;;2.53;;
33475;SDS011;19814;48.224;11.422;2023-08-20T14:30:41;5.25;;;2.80;;
33475;SDS011;19814;48.224;11.422;2023-08-20T14:33:06;9.43;;;2.97;;
33475;SDS011;19814;48.224;11.422;2023-08-20T14:35:32;5.55;;;3.88;;
33475;SDS011;19814;48.224;11.422;2023-08-20T14:37:58;6.32;;;4.15;;
33475;SDS011;19814;48.224;11.422;2023-08-20T14:40:23;5.25;;;3.47;;
33475;SDS011;19814;48.224;11.422;2023-08-20T14:42:49;21.10;;;15.82;;